sensor_id;sensor_type;location;lat;lon;timestamp;pressure;altitude;pressure_sealevel;temperature;humidity
72636;BME280;60679;48.888;15.544;2023-12-28T00:01:13;96465.66;;;-0.80;68.36
72636;BME280;60679;48.888;15.544;2023-12-28T00:03:38;96467.78;;;-0.66;68.54
72636;BME280;60679;48.888;15.544;2023-12-28T00:06:06;96467.28;;;-0.51;68.62
72636;BME280;60679;48.888;15.544;2023-12-28T00:08:31;96467.59;;;-0.37;68.42
72636;BME280;60679;48.888;15.544;2023-12-28T00:10:57;96458.09;;;-0.22;68.26
72636;BME280;60679;48.888;15.544;2023-12-28T00:13:23;96466.81;;;-0.12;68.55
72636;BME280;60679;48.888;15.544;2023-12-28T00:15:48;96464.91;;;-0.02;68.53
72636;BME280;60679;48.888;15.544;2023-12-28T00:18:14;96464.28;;;0.05;68.46
72636;BME280;60679;48.888;15.544;2023-12-28T00:20:39;96459.88;;;0.13;68.24
72636;BME280;60679;48.888;15.544;2023-12-28T00:23:05;96453.78;;;0.21;68.28
72636;BME280;60679;48.888;15.544;2023-12-28T00:25:31;96447.84;;;0.27;68.59
72636;BME280;60679;48.888;15.544;2023-12-28T00:27:57;96444.22;;;0.28;68.05
72636;BME280;60679;48.888;15.544;2023-12-28T00:30:22;96436.09;;;0.29;68.26
72636;BME280;60679;48.888;15.544;2023-12-28T00:32:48;96434.78;;;0.33;68.45
72636;BME280;60679;48.888;15.544;2023-12-28T00:35:13;96434.47;;;0.36;68.47
72636;BME280;60679;48.888;15.544;2023-12-28T00:37:39;96426.34;;;0.38;68.16
72636;BME280;60679;48.888;15.544;2023-12-28T00:40:05;96437.81;;;0.38;68.10
72636;BME280;60679;48.888;15.544;2023-12-28T00:42:30;96440.47;;;0.38;67.97
72636;BME280;60679;48.888;15.544;2023-12-28T00:44:56;96441.28;;;0.39;68.31
72636;BME280;60679;48.888;15.544;2023-12-28T00:47:21;96456.69;;;0.35;68.31
72636;BME280;60679;48.888;15.544;2023-12-28T00:49:47;96447.75;;;0.36;68.68
72636;BME280;60679;48.888;15.544;2023-12-28T00:52:13;96451.91;;;0.39;68.69
72636;BME280;60679;48.888;15.544;2023-12-28T00:54:38;96452.94;;;0.46;68.61
72636;BME280;60679;48.888;15.544;2023-12-28T00:57:04;96458.63;;;0.51;68.52
72636;BME280;60679;48.888;15.544;2023-12-28T00:59:30;96473.25;;;0.55;68.58
72636;BME280;60679;48.888;15.544;2023-12-28T01:01:56;96464.13;;;0.57;68.58
72636;BME280;60679;48.888;15.544;2023-12-28T01:04:22;96479.41;;;0.55;68.60
72636;BME280;60679;48.888;15.544;2023-12-28T01:06:51;96488.22;;;0.56;68.65
72636;BME280;60679;48.888;15.544;2023-12-28T01:09:16;96486.53;;;0.55;68.62
72636;BME280;60679;48.888;15.544;2023-12-28T01:11:42;96487.91;;;0.59;68.87
72636;BME280;60679;48.888;15.544;2023-12-28T01:14:07;96474.81;;;0.66;68.83
72636;BME280;60679;48.888;15.544;2023-12-28T01:16:33;96483.97;;;0.71;68.84
72636;BME280;60679;48.888;15.544;2023-12-28T01:18:58;96488.31;;;0.72;68.85
72636;BME280;60679;48.888;15.544;2023-12-28T01:21:23;96489.28;;;0.71;68.69
72636;BME280;60679;48.888;15.544;2023-12-28T01:23:50;96480.66;;;0.69;68.86
72636;BME280;60679;48.888;15.544;2023-12-28T01:26:16;96470.69;;;0.71;68.82
72636;BME280;60679;48.888;15.544;2023-12-28T01:28:45;96467.88;;;0.73;68.95
72636;BME280;60679;48.888;15.544;2023-12-28T01:31:10;96461.56;;;0.74;68.81
72636;BME280;60679;48.888;15.544;2023-12-28T01:33:36;96463.41;;;0.73;69.02
72636;BME280;60679;48.888;15.544;2023-12-28T01:36:02;96467.88;;;0.73;68.91
72636;BME280;60679;48.888;15.544;2023-12-28T01:38:27;96457.72;;;0.68;68.90
72636;BME280;60679;48.888;15.544;2023-12-28T01:40:53;96460.69;;;0.65;69.10
72636;BME280;60679;48.888;15.544;2023-12-28T01:43:18;96450.41;;;0.62;68.91
72636;BME280;60679;48.888;15.544;2023-12-28T01:45:44;96458.50;;;0.61;68.97
72636;BME280;60679;48.888;15.544;2023-12-28T01:48:14;96460.03;;;0.63;69.19
72636;BME280;60679;48.888;15.544;2023-12-28T01:50:39;96458.19;;;0.64;69.11
72636;BME280;60679;48.888;15.544;2023-12-28T01:53:05;96474.31;;;0.62;69.10
72636;BME280;60679;48.888;15.544;2023-12-28T01:55:33;96459.72;;;0.66;69.17
72636;BME280;60679;48.888;15.544;2023-12-28T01:57:59;96472.47;;;0.63;69.02
72636;BME280;60679;48.888;15.544;2023-12-28T02:00:24;96457.53;;;0.62;69.14
72636;BME280;60679;48.888;15.544;2023-12-28T02:02:50;96465.66;;;0.60;69.13
72636;BME280;60679;48.888;15.544;2023-12-28T02:05:16;96473.09;;;0.56;69.41
72636;BME280;60679;48.888;15.544;2023-12-28T02:07:42;96473.09;;;0.56;69.25
72636;BME280;60679;48.888;15.544;2023-12-28T02:10:08;96470.59;;;0.55;69.49
72636;BME280;60679;48.888;15.544;2023-12-28T02:12:33;96466.13;;;0.55;69.36
72636;BME280;60679;48.888;15.544;2023-12-28T02:14:59;96460.16;;;0.53;69.40
72636;BME280;60679;48.888;15.544;2023-12-28T02:17:55;96456.47;;;0.54;69.43
72636;BME280;60679;48.888;15.544;2023-12-28T02:20:19;96454.84;;;0.53;69.28
72636;BME280;60679;48.888;15.544;2023-12-28T02:22:46;96448.38;;;0.56;69.58
72636;BME280;60679;48.888;15.544;2023-12-28T02:25:12;96446.69;;;0.55;69.31
72636;BME280;60679;48.888;15.544;2023-12-28T02:27:45;96456.66;;;0.53;69.38
72636;BME280;60679;48.888;15.544;2023-12-28T02:30:13;96436.25;;;0.53;69.56
72636;BME280;60679;48.888;15.544;2023-12-28T02:35:44;96431.06;;;0.52;69.39
72636;BME280;60679;48.888;15.544;2023-12-28T02:38:12;96425.63;;;0.53;69.51
72636;BME280;60679;48.888;15.544;2023-12-28T02:40:42;96432.88;;;0.51;69.34
72636;BME280;60679;48.888;15.544;2023-12-28T02:43:09;96437.19;;;0.44;69.64
72636;BME280;60679;48.888;15.544;2023-12-28T02:45:36;96429.53;;;0.41;69.60
72636;BME280;60679;48.888;15.544;2023-12-28T02:48:02;96416.69;;;0.37;69.42
72636;BME280;60679;48.888;15.544;2023-12-28T02:50:28;96428.13;;;0.29;69.32
72636;BME280;60679;48.888;15.544;2023-12-28T02:52:56;96416.97;;;0.26;69.69
72636;BME280;60679;48.888;15.544;2023-12-28T02:55:22;96421.59;;;0.24;69.51
72636;BME280;60679;48.888;15.544;2023-12-28T02:57:49;96442.84;;;0.24;69.73
72636;BME280;60679;48.888;15.544;2023-12-28T03:00:15;96422.44;;;0.24;69.67
72636;BME280;60679;48.888;15.544;2023-12-28T03:02:41;96427.44;;;0.27;69.54
72636;BME280;60679;48.888;15.544;2023-12-28T03:05:07;96432.75;;;0.27;69.83
72636;BME280;60679;48.888;15.544;2023-12-28T03:07:33;96427.75;;;0.24;69.75
72636;BME280;60679;48.888;15.544;2023-12-28T03:09:59;96426.25;;;0.22;69.70
72636;BME280;60679;48.888;15.544;2023-12-28T03:12:25;96425.38;;;0.13;69.67
72636;BME280;60679;48.888;15.544;2023-12-28T03:14:50;96428.03;;;0.13;69.81
72636;BME280;60679;48.888;15.544;2023-12-28T03:17:16;96431.97;;;0.09;70.01
72636;BME280;60679;48.888;15.544;2023-12-28T03:19:41;96428.09;;;0.04;69.85
72636;BME280;60679;48.888;15.544;2023-12-28T03:22:07;96436.38;;;0.00;70.07
72636;BME280;60679;48.888;15.544;2023-12-28T03:24:32;96431.75;;;0.03;70.11
72636;BME280;60679;48.888;15.544;2023-12-28T03:26:58;96430.25;;;0.00;69.99
72636;BME280;60679;48.888;15.544;2023-12-28T03:29:24;96431.38;;;-0.03;70.10
72636;BME280;60679;48.888;15.544;2023-12-28T03:31:49;96432.38;;;-0.04;70.20
72636;BME280;60679;48.888;15.544;2023-12-28T03:34:15;96432.91;;;0.00;70.07
72636;BME280;60679;48.888;15.544;2023-12-28T03:36:40;96432.22;;;-0.02;69.75
72636;BME280;60679;48.888;15.544;2023-12-28T03:39:06;96435.41;;;0.02;70.11
72636;BME280;60679;48.888;15.544;2023-12-28T03:41:31;96452.00;;;0.04;70.04
72636;BME280;60679;48.888;15.544;2023-12-28T03:43:57;96451.50;;;0.00;69.96
72636;BME280;60679;48.888;15.544;2023-12-28T03:46:23;96442.28;;;-0.06;70.00
72636;BME280;60679;48.888;15.544;2023-12-28T03:48:48;96437.81;;;-0.05;70.04
72636;BME280;60679;48.888;15.544;2023-12-28T03:51:14;96449.81;;;-0.01;70.23
72636;BME280;60679;48.888;15.544;2023-12-28T03:53:40;96448.50;;;0.03;69.96
72636;BME280;60679;48.888;15.544;2023-12-28T03:56:06;96455.47;;;0.04;69.96
72636;BME280;60679;48.888;15.544;2023-12-28T03:58:31;96452.53;;;0.07;70.05
72636;BME280;60679;48.888;15.544;2023-12-28T04:00:57;96461.03;;;0.11;69.90
72636;BME280;60679;48.888;15.544;2023-12-28T04:03:22;96458.19;;;0.12;69.94
72636;BME280;60679;48.888;15.544;2023-12-28T04:05:48;96454.69;;;0.12;70.08
72636;BME280;60679;48.888;15.544;2023-12-28T04:08:13;96456.22;;;0.14;69.95
72636;BME280;60679;48.888;15.544;2023-12-28T04:10:38;96453.72;;;0.13;70.31
72636;BME280;60679;48.888;15.544;2023-12-28T04:13:04;96447.13;;;0.17;70.22
72636;BME280;60679;48.888;15.544;2023-12-28T04:15:30;96453.25;;;0.17;70.29
72636;BME280;60679;48.888;15.544;2023-12-28T04:17:56;96444.47;;;0.17;70.19
72636;BME280;60679;48.888;15.544;2023-12-28T04:20:22;96445.97;;;0.19;70.11
72636;BME280;60679;48.888;15.544;2023-12-28T04:22:48;96456.59;;;0.19;70.00
72636;BME280;60679;48.888;15.544;2023-12-28T04:25:13;96456.59;;;0.19;70.03
72636;BME280;60679;48.888;15.544;2023-12-28T04:27:41;96460.22;;;0.18;70.08
72636;BME280;60679;48.888;15.544;2023-12-28T04:30:07;96454.25;;;0.16;70.20
72636;BME280;60679;48.888;15.544;2023-12-28T04:32:33;96445.59;;;0.14;70.20
72636;BME280;60679;48.888;15.544;2023-12-28T04:34:58;96458.50;;;0.09;70.03
72636;BME280;60679;48.888;15.544;2023-12-28T04:37:24;96444.88;;;0.04;69.98
72636;BME280;60679;48.888;15.544;2023-12-28T04:39:51;96440.69;;;0.02;70.26
72636;BME280;60679;48.888;15.544;2023-12-28T04:42:16;96442.34;;;-0.23;69.98
72636;BME280;60679;48.888;15.544;2023-12-28T04:44:42;96437.28;;;-0.52;70.29
72636;BME280;60679;48.888;15.544;2023-12-28T04:47:07;96444.25;;;-0.51;70.57
72636;BME280;60679;48.888;15.544;2023-12-28T04:49:33;96452.28;;;-0.43;70.64
72636;BME280;60679;48.888;15.544;2023-12-28T04:51:58;96461.28;;;-0.36;70.45
72636;BME280;60679;48.888;15.544;2023-12-28T04:54:25;96453.84;;;-0.32;70.53
72636;BME280;60679;48.888;15.544;2023-12-28T04:56:50;96447.59;;;-0.31;70.42
72636;BME280;60679;48.888;15.544;2023-12-28T04:59:16;96451.22;;;-0.32;70.42
72636;BME280;60679;48.888;15.544;2023-12-28T05:01:44;96450.53;;;-0.34;70.42
72636;BME280;60679;48.888;15.544;2023-12-28T05:04:10;96452.72;;;-0.47;70.47
72636;BME280;60679;48.888;15.544;2023-12-28T05:06:36;96464.63;;;-0.51;70.36
72636;BME280;60679;48.888;15.544;2023-12-28T05:09:02;96466.44;;;-0.52;70.44
72636;BME280;60679;48.888;15.544;2023-12-28T05:11:28;96458.41;;;-0.60;70.65
72636;BME280;60679;48.888;15.544;2023-12-28T05:13:53;96466.72;;;-0.73;70.58
72636;BME280;60679;48.888;15.544;2023-12-28T05:16:19;96475.38;;;-0.71;70.93
72636;BME280;60679;48.888;15.544;2023-12-28T05:18:46;96459.91;;;-0.75;70.79
72636;BME280;60679;48.888;15.544;2023-12-28T05:21:14;96467.84;;;-0.75;70.56
72636;BME280;60679;48.888;15.544;2023-12-28T05:23:40;96459.75;;;-0.74;70.77
72636;BME280;60679;48.888;15.544;2023-12-28T05:26:05;96461.56;;;-0.74;70.74
72636;BME280;60679;48.888;15.544;2023-12-28T05:28:31;96454.16;;;-0.71;70.87
72636;BME280;60679;48.888;15.544;2023-12-28T05:30:57;96458.31;;;-0.68;70.80
72636;BME280;60679;48.888;15.544;2023-12-28T05:33:27;96447.84;;;-0.70;70.68
72636;BME280;60679;48.888;15.544;2023-12-28T05:35:52;96454.28;;;-0.72;70.90
72636;BME280;60679;48.888;15.544;2023-12-28T05:38:18;96452.91;;;-0.76;70.96
72636;BME280;60679;48.888;15.544;2023-12-28T05:40:44;96446.84;;;-0.86;70.61
72636;BME280;60679;48.888;15.544;2023-12-28T05:43:10;96456.16;;;-1.00;70.53
72636;BME280;60679;48.888;15.544;2023-12-28T05:45:36;96459.53;;;-1.07;71.01
72636;BME280;60679;48.888;15.544;2023-12-28T05:48:01;96469.19;;;-0.89;70.97
72636;BME280;60679;48.888;15.544;2023-12-28T05:50:27;96458.00;;;-0.83;70.67
72636;BME280;60679;48.888;15.544;2023-12-28T05:52:52;96449.59;;;-0.78;70.97
72636;BME280;60679;48.888;15.544;2023-12-28T05:55:18;96458.09;;;-0.75;70.71
72636;BME280;60679;48.888;15.544;2023-12-28T05:57:43;96466.16;;;-0.76;70.37
72636;BME280;60679;48.888;15.544;2023-12-28T06:00:09;96460.94;;;-0.86;70.56
72636;BME280;60679;48.888;15.544;2023-12-28T06:02:35;96463.88;;;-0.89;70.83
72636;BME280;60679;48.888;15.544;2023-12-28T06:05:01;96465.16;;;-0.93;70.70
72636;BME280;60679;48.888;15.544;2023-12-28T06:07:26;96473.53;;;-0.88;71.02
72636;BME280;60679;48.888;15.544;2023-12-28T06:09:51;96463.34;;;-0.92;70.71
72636;BME280;60679;48.888;15.544;2023-12-28T06:12:17;96457.50;;;-0.96;70.80
72636;BME280;60679;48.888;15.544;2023-12-28T06:14:42;96472.34;;;-1.03;70.79
72636;BME280;60679;48.888;15.544;2023-12-28T06:17:08;96460.22;;;-1.05;70.99
72636;BME280;60679;48.888;15.544;2023-12-28T06:19:33;96459.38;;;-1.06;70.86
72636;BME280;60679;48.888;15.544;2023-12-28T06:21:59;96446.88;;;-1.13;70.96
72636;BME280;60679;48.888;15.544;2023-12-28T06:24:24;96458.06;;;-1.20;71.04
72636;BME280;60679;48.888;15.544;2023-12-28T06:26:50;96462.72;;;-1.31;71.08
72636;BME280;60679;48.888;15.544;2023-12-28T06:29:16;96472.34;;;-1.30;71.46
72636;BME280;60679;48.888;15.544;2023-12-28T06:31:41;96473.97;;;-1.29;71.17
72636;BME280;60679;48.888;15.544;2023-12-28T06:34:07;96472.34;;;-1.30;71.25
72636;BME280;60679;48.888;15.544;2023-12-28T06:36:32;96473.69;;;-1.26;71.02
72636;BME280;60679;48.888;15.544;2023-12-28T06:38:58;96471.22;;;-1.28;71.15
72636;BME280;60679;48.888;15.544;2023-12-28T06:41:25;96470.06;;;-1.25;71.21
72636;BME280;60679;48.888;15.544;2023-12-28T06:43:51;96468.41;;;-1.26;71.14
72636;BME280;60679;48.888;15.544;2023-12-28T06:46:19;96470.75;;;-1.23;70.94
72636;BME280;60679;48.888;15.544;2023-12-28T06:48:45;96473.97;;;-1.20;71.02
72636;BME280;60679;48.888;15.544;2023-12-28T06:51:19;96482.66;;;-1.27;71.04
72636;BME280;60679;48.888;15.544;2023-12-28T06:53:46;96491.69;;;-1.30;71.01
72636;BME280;60679;48.888;15.544;2023-12-28T06:56:12;96501.75;;;-1.33;71.01
72636;BME280;60679;48.888;15.544;2023-12-28T06:58:37;96490.88;;;-1.30;70.75
72636;BME280;60679;48.888;15.544;2023-12-28T07:01:06;96495.56;;;-1.24;71.32
72636;BME280;60679;48.888;15.544;2023-12-28T07:03:32;96504.50;;;-1.25;71.03
72636;BME280;60679;48.888;15.544;2023-12-28T07:06:01;96488.22;;;-1.30;71.04
72636;BME280;60679;48.888;15.544;2023-12-28T07:08:28;96509.13;;;-1.27;71.00
72636;BME280;60679;48.888;15.544;2023-12-28T07:10:54;96505.34;;;-1.25;70.84
72636;BME280;60679;48.888;15.544;2023-12-28T07:13:22;96509.06;;;-1.18;71.12
72636;BME280;60679;48.888;15.544;2023-12-28T07:15:48;96516.81;;;-1.06;70.99
72636;BME280;60679;48.888;15.544;2023-12-28T07:18:13;96520.41;;;-0.98;70.99
72636;BME280;60679;48.888;15.544;2023-12-28T07:20:39;96538.53;;;-0.93;70.86
72636;BME280;60679;48.888;15.544;2023-12-28T07:23:05;96531.13;;;-0.90;70.91
72636;BME280;60679;48.888;15.544;2023-12-28T07:25:30;96531.66;;;-0.86;70.54
72636;BME280;60679;48.888;15.544;2023-12-28T07:27:56;96539.72;;;-0.78;70.79
72636;BME280;60679;48.888;15.544;2023-12-28T07:30:21;96536.47;;;-0.72;70.59
72636;BME280;60679;48.888;15.544;2023-12-28T07:32:47;96531.25;;;-0.64;70.61
72636;BME280;60679;48.888;15.544;2023-12-28T07:35:12;96540.97;;;-0.55;70.46
72636;BME280;60679;48.888;15.544;2023-12-28T07:37:38;96544.00;;;-0.50;70.25
72636;BME280;60679;48.888;15.544;2023-12-28T07:40:04;96551.66;;;-0.47;70.34
72636;BME280;60679;48.888;15.544;2023-12-28T07:42:29;96560.56;;;-0.38;70.49
72636;BME280;60679;48.888;15.544;2023-12-28T07:44:55;96548.50;;;-0.33;70.35
72636;BME280;60679;48.888;15.544;2023-12-28T07:47:20;96543.44;;;-0.26;70.10
72636;BME280;60679;48.888;15.544;2023-12-28T07:49:46;96552.13;;;-0.34;70.12
72636;BME280;60679;48.888;15.544;2023-12-28T07:52:12;96556.47;;;-0.33;70.18
72636;BME280;60679;48.888;15.544;2023-12-28T07:54:37;96554.19;;;-0.28;70.26
72636;BME280;60679;48.888;15.544;2023-12-28T07:57:03;96565.72;;;-0.19;70.23
72636;BME280;60679;48.888;15.544;2023-12-28T07:59:28;96553.91;;;-0.07;70.05
72636;BME280;60679;48.888;15.544;2023-12-28T08:01:54;96557.56;;;0.10;69.90
72636;BME280;60679;48.888;15.544;2023-12-28T08:04:20;96563.69;;;0.28;69.62
72636;BME280;60679;48.888;15.544;2023-12-28T08:06:45;96556.78;;;0.35;69.58
72636;BME280;60679;48.888;15.544;2023-12-28T08:09:11;96550.63;;;0.34;69.50
72636;BME280;60679;48.888;15.544;2023-12-28T08:11:37;96535.88;;;0.40;69.52
72636;BME280;60679;48.888;15.544;2023-12-28T08:14:02;96544.34;;;0.35;69.53
72636;BME280;60679;48.888;15.544;2023-12-28T08:16:28;96552.84;;;0.39;69.47
72636;BME280;60679;48.888;15.544;2023-12-28T08:18:54;96550.56;;;0.26;69.57
72636;BME280;60679;48.888;15.544;2023-12-28T08:21:19;96548.38;;;0.39;69.61
72636;BME280;60679;48.888;15.544;2023-12-28T08:23:45;96542.63;;;0.52;69.49
72636;BME280;60679;48.888;15.544;2023-12-28T08:26:10;96533.69;;;0.53;69.19
72636;BME280;60679;48.888;15.544;2023-12-28T08:28:36;96556.78;;;0.78;69.05
72636;BME280;60679;48.888;15.544;2023-12-28T08:31:02;96548.38;;;0.91;69.10
72636;BME280;60679;48.888;15.544;2023-12-28T08:33:27;96558.69;;;0.94;68.77
72636;BME280;60679;48.888;15.544;2023-12-28T08:35:53;96550.66;;;1.11;68.65
72636;BME280;60679;48.888;15.544;2023-12-28T08:38:19;96540.47;;;1.41;68.07
72636;BME280;60679;48.888;15.544;2023-12-28T08:40:44;96536.91;;;1.74;67.66
72636;BME280;60679;48.888;15.544;2023-12-28T08:43:10;96530.63;;;1.83;67.45
72636;BME280;60679;48.888;15.544;2023-12-28T08:45:35;96529.47;;;1.94;67.51
72636;BME280;60679;48.888;15.544;2023-12-28T08:48:01;96526.50;;;1.97;67.50
72636;BME280;60679;48.888;15.544;2023-12-28T08:50:27;96531.63;;;1.98;67.42
72636;BME280;60679;48.888;15.544;2023-12-28T08:52:52;96541.31;;;2.07;67.21
72636;BME280;60679;48.888;15.544;2023-12-28T08:55:18;96533.66;;;2.12;67.66
72636;BME280;60679;48.888;15.544;2023-12-28T08:57:43;96546.16;;;2.20;67.42
72636;BME280;60679;48.888;15.544;2023-12-28T09:00:10;96536.81;;;1.92;68.00
72636;BME280;60679;48.888;15.544;2023-12-28T09:02:40;96532.97;;;1.94;67.68
72636;BME280;60679;48.888;15.544;2023-12-28T09:05:06;96545.16;;;2.21;66.94
72636;BME280;60679;48.888;15.544;2023-12-28T09:07:33;96538.81;;;2.14;67.34
72636;BME280;60679;48.888;15.544;2023-12-28T09:10:01;96544.66;;;2.25;67.33
72636;BME280;60679;48.888;15.544;2023-12-28T09:12:28;96548.31;;;2.24;67.47
72636;BME280;60679;48.888;15.544;2023-12-28T09:14:54;96546.16;;;2.20;67.34
72636;BME280;60679;48.888;15.544;2023-12-28T09:17:22;96527.34;;;2.38;66.95
72636;BME280;60679;48.888;15.544;2023-12-28T09:19:48;96528.78;;;2.80;66.59
72636;BME280;60679;48.888;15.544;2023-12-28T09:22:13;96526.94;;;2.89;66.74
72636;BME280;60679;48.888;15.544;2023-12-28T09:24:39;96520.59;;;2.98;66.58
72636;BME280;60679;48.888;15.544;2023-12-28T09:27:05;96528.06;;;3.19;66.22
72636;BME280;60679;48.888;15.544;2023-12-28T09:29:30;96524.28;;;3.36;65.99
72636;BME280;60679;48.888;15.544;2023-12-28T09:31:56;96527.03;;;3.67;65.37
72636;BME280;60679;48.888;15.544;2023-12-28T09:34:21;96514.09;;;3.78;65.32
72636;BME280;60679;48.888;15.544;2023-12-28T09:36:47;96509.00;;;3.91;65.13
72636;BME280;60679;48.888;15.544;2023-12-28T09:39:12;96505.03;;;4.33;64.53
72636;BME280;60679;48.888;15.544;2023-12-28T09:41:43;96512.63;;;4.44;64.52
72636;BME280;60679;48.888;15.544;2023-12-28T09:44:28;96514.50;;;4.58;64.45
72636;BME280;60679;48.888;15.544;2023-12-28T09:46:54;96502.84;;;4.74;64.09
72636;BME280;60679;48.888;15.544;2023-12-28T09:49:21;96512.03;;;4.94;63.90
72636;BME280;60679;48.888;15.544;2023-12-28T09:51:47;96508.22;;;4.74;64.42
72636;BME280;60679;48.888;15.544;2023-12-28T09:54:13;96512.97;;;4.63;64.41
72636;BME280;60679;48.888;15.544;2023-12-28T09:56:39;96505.16;;;4.39;64.64
72636;BME280;60679;48.888;15.544;2023-12-28T09:59:05;96500.63;;;4.62;64.25
72636;BME280;60679;48.888;15.544;2023-12-28T10:01:31;96501.03;;;6.12;62.17
72636;BME280;60679;48.888;15.544;2023-12-28T10:03:57;96500.97;;;6.76;61.84
72636;BME280;60679;48.888;15.544;2023-12-28T10:06:23;96502.81;;;6.26;62.92
72636;BME280;60679;48.888;15.544;2023-12-28T10:08:49;96504.75;;;5.97;62.83
72636;BME280;60679;48.888;15.544;2023-12-28T10:11:18;96488.75;;;7.29;61.14
72636;BME280;60679;48.888;15.544;2023-12-28T10:13:44;96487.41;;;7.46;60.90
72636;BME280;60679;48.888;15.544;2023-12-28T10:16:11;96485.09;;;7.36;60.82
72636;BME280;60679;48.888;15.544;2023-12-28T10:18:41;96472.44;;;9.88;58.67
72636;BME280;60679;48.888;15.544;2023-12-28T10:21:08;96482.63;;;9.08;60.72
72636;BME280;60679;48.888;15.544;2023-12-28T10:23:33;96480.56;;;8.71;60.67
72636;BME280;60679;48.888;15.544;2023-12-28T10:25:59;96476.38;;;8.36;60.84
72636;BME280;60679;48.888;15.544;2023-12-28T10:28:25;96476.19;;;8.70;60.12
72636;BME280;60679;48.888;15.544;2023-12-28T10:30:54;96473.97;;;9.64;59.13
72636;BME280;60679;48.888;15.544;2023-12-28T10:33:20;96486.44;;;9.52;59.60
72636;BME280;60679;48.888;15.544;2023-12-28T10:35:45;96477.97;;;9.48;59.84
72636;BME280;60679;48.888;15.544;2023-12-28T10:38:13;96479.72;;;9.87;59.15
72636;BME280;60679;48.888;15.544;2023-12-28T10:40:44;96480.72;;;10.68;57.89
72636;BME280;60679;48.888;15.544;2023-12-28T10:43:11;96474.06;;;9.95;59.68
72636;BME280;60679;48.888;15.544;2023-12-28T10:45:39;96476.81;;;10.33;59.22
72636;BME280;60679;48.888;15.544;2023-12-28T10:48:07;96465.84;;;11.88;57.02
72636;BME280;60679;48.888;15.544;2023-12-28T10:50:46;96459.31;;;11.77;57.33
72636;BME280;60679;48.888;15.544;2023-12-28T11:01:37;96427.22;;;16.99;51.93
72636;BME280;60679;48.888;15.544;2023-12-28T11:04:08;96415.22;;;18.46;50.59
72636;BME280;60679;48.888;15.544;2023-12-28T11:06:36;96417.53;;;19.60;49.04
72636;BME280;60679;48.888;15.544;2023-12-28T11:09:03;96425.03;;;20.18;48.55
72636;BME280;60679;48.888;15.544;2023-12-28T11:11:31;96409.72;;;20.66;48.61
72636;BME280;60679;48.888;15.544;2023-12-28T11:13:59;96418.81;;;21.11;48.14
72636;BME280;60679;48.888;15.544;2023-12-28T11:16:26;96420.09;;;21.52;47.53
72636;BME280;60679;48.888;15.544;2023-12-28T11:18:53;96406.31;;;22.10;47.50
72636;BME280;60679;48.888;15.544;2023-12-28T11:21:20;96394.69;;;22.36;47.56
72636;BME280;60679;48.888;15.544;2023-12-28T11:23:46;96400.66;;;22.86;47.34
72636;BME280;60679;48.888;15.544;2023-12-28T11:26:22;96387.47;;;23.34;47.37
72636;BME280;60679;48.888;15.544;2023-12-28T11:28:48;96379.81;;;23.63;47.08
72636;BME280;60679;48.888;15.544;2023-12-28T11:31:14;96381.28;;;24.01;46.48
72636;BME280;60679;48.888;15.544;2023-12-28T11:33:44;96372.00;;;24.38;46.09
72636;BME280;60679;48.888;15.544;2023-12-28T11:36:10;96367.75;;;24.68;45.82
72636;BME280;60679;48.888;15.544;2023-12-28T11:38:37;96369.59;;;25.08;45.61
72636;BME280;60679;48.888;15.544;2023-12-28T11:41:04;96357.06;;;25.33;44.89
72636;BME280;60679;48.888;15.544;2023-12-28T11:43:34;96345.13;;;25.68;45.13
72636;BME280;60679;48.888;15.544;2023-12-28T11:46:00;96349.19;;;26.02;45.06
72636;BME280;60679;48.888;15.544;2023-12-28T11:48:27;96335.50;;;26.45;44.57
72636;BME280;60679;48.888;15.544;2023-12-28T11:50:55;96341.53;;;26.55;44.73
72636;BME280;60679;48.888;15.544;2023-12-28T11:53:22;96345.19;;;26.16;45.40
72636;BME280;60679;48.888;15.544;2023-12-28T11:55:48;96344.16;;;25.73;45.71
72636;BME280;60679;48.888;15.544;2023-12-28T11:58:16;96359.63;;;26.61;45.12
72636;BME280;60679;48.888;15.544;2023-12-28T12:00:42;96344.38;;;27.07;44.71
72636;BME280;60679;48.888;15.544;2023-12-28T12:03:10;96352.34;;;27.42;44.52
72636;BME280;60679;48.888;15.544;2023-12-28T12:05:35;96349.94;;;28.34;42.84
72636;BME280;60679;48.888;15.544;2023-12-28T12:08:01;96346.47;;;28.37;43.02
72636;BME280;60679;48.888;15.544;2023-12-28T12:10:26;96349.41;;;28.90;42.81
72636;BME280;60679;48.888;15.544;2023-12-28T12:12:54;96349.69;;;28.97;42.64
72636;BME280;60679;48.888;15.544;2023-12-28T12:15:20;96350.88;;;29.50;41.95
72636;BME280;60679;48.888;15.544;2023-12-28T12:17:46;96343.69;;;30.51;40.93
72636;BME280;60679;48.888;15.544;2023-12-28T12:20:11;96339.19;;;31.10;40.08
72636;BME280;60679;48.888;15.544;2023-12-28T12:22:37;96345.34;;;31.04;40.60
72636;BME280;60679;48.888;15.544;2023-12-28T12:25:03;96345.34;;;29.95;41.79
72636;BME280;60679;48.888;15.544;2023-12-28T12:27:31;96330.63;;;26.59;46.29
72636;BME280;60679;48.888;15.544;2023-12-28T12:29:56;96343.53;;;22.73;51.06
72636;BME280;60679;48.888;15.544;2023-12-28T12:32:22;96349.06;;;20.19;54.40
72636;BME280;60679;48.888;15.544;2023-12-28T12:34:49;96342.00;;;18.53;56.06
72636;BME280;60679;48.888;15.544;2023-12-28T12:37:14;96336.03;;;17.32;57.20
72636;BME280;60679;48.888;15.544;2023-12-28T12:39:40;96335.00;;;16.38;58.40
72636;BME280;60679;48.888;15.544;2023-12-28T12:42:05;96345.28;;;15.77;58.69
72636;BME280;60679;48.888;15.544;2023-12-28T12:44:32;96340.22;;;15.26;59.00
72636;BME280;60679;48.888;15.544;2023-12-28T12:46:58;96340.53;;;14.74;59.22
72636;BME280;60679;48.888;15.544;2023-12-28T12:49:25;96333.94;;;14.54;60.18
72636;BME280;60679;48.888;15.544;2023-12-28T12:51:50;96335.25;;;14.34;59.91
72636;BME280;60679;48.888;15.544;2023-12-28T12:54:17;96333.19;;;13.97;60.43
72636;BME280;60679;48.888;15.544;2023-12-28T12:56:44;96338.16;;;13.60;60.96
72636;BME280;60679;48.888;15.544;2023-12-28T12:59:10;96335.63;;;13.30;61.06
72636;BME280;60679;48.888;15.544;2023-12-28T13:01:41;96336.47;;;13.19;60.64